Aeroporto :
LOGIN :

Iscrizione | Disclaimer

   EN    FR    IT 

 










Sommario :    VFR   VFR Marginale   IFR   IFR Intensivo   IFR Molto Intensivo
Visibilità : 
Base nubi : 
>= 8 km
>= 3000ft
5 / 8 km
1000 / 3000 ft
1500m / 5 km
500 / 1000 ft
800 / 1500m
200 / 500 ft
< 800m
< 200 ft
Simboli :   Temporali  Nebbia  Neve Forte  Precipitazioni Forti  Vento > 20 kt
SIGMETs :   Varie  Temporali  Ghiacco  Turbolenza  Onda orograficha  Ceneri Vulcaniche






- Altitudine del aeroporto : 446 ft
- Codice IATA : VNE


LFRV - Vannes-Meucon

ULTIMO METAR :
  • 031000Z AUTO 32004KT 280V360 9999 FEW003 BKN150 BKN170 20/12 Q1008

METARs OBSOLETI :
  • 030930Z AUTO VRB02KT CAVOK 19/12 Q1008
  • 030900Z AUTO VRB02KT CAVOK 19/12 Q1008
  • 030830Z AUTO VRB02KT CAVOK 18/12 Q1009
  • 030800Z AUTO 34004KT 310V010 CAVOK 17/11 Q1009
  • 030730Z AUTO 34006KT CAVOK 16/11 Q1009

TAF N/A



MetMap, La meteo Aeronautica in un colpo d'occhio ! - Copyright ORBIFLY Dicembre 2007 - Disclaimer

ORBIFLY MET'MAP TEAM :

Programmazione e sviluppo : Alexandra Zaïnal
Concezione : Baudouin d'Aumeries
Aiuto per la programmazione : Marc-Olivier Méhu
Supporto tecnico e logistico : Manuel Goepfert
Aiuto per la traduzione : Arnaldo La Scala

Contatto : metmap@orbifly.com




FONTI E CREDITI :

   NOAA